createdAt,value
2023-10-31T00:02:00.047Z,12.43
2023-10-31T00:04:27.081Z,12.42
2023-10-31T00:06:53.958Z,12.38
2023-10-31T00:09:20.699Z,12.30
2023-10-31T00:11:47.558Z,12.17
2023-10-31T00:14:29.497Z,12.14
2023-10-31T00:16:59.386Z,12.17
2023-10-31T00:19:26.346Z,12.01
2023-10-31T00:21:53.206Z,11.96
2023-10-31T00:24:20.189Z,12.04
2023-10-31T00:26:46.883Z,12.04
2023-10-31T00:29:13.563Z,11.96
2023-10-31T00:31:42.836Z,12.02
2023-10-31T00:34:10.041Z,12.00
2023-10-31T00:36:36.957Z,12.04
2023-10-31T00:39:04.077Z,12.04
2023-10-31T00:41:32.019Z,12.04
2023-10-31T00:43:58.741Z,12.02
2023-10-31T00:46:25.655Z,12.01
2023-10-31T00:48:52.356Z,12.00
2023-10-31T00:51:19.126Z,11.98
2023-10-31T00:53:46.635Z,11.93
2023-10-31T00:56:13.353Z,11.89
2023-10-31T00:58:40.187Z,11.96
2023-10-31T01:01:07.047Z,11.97
2023-10-31T01:03:34.000Z,11.99
2023-10-31T01:06:00.991Z,12.02
2023-10-31T01:08:27.972Z,11.98
2023-10-31T01:10:54.930Z,11.97
2023-10-31T01:13:21.759Z,11.95
2023-10-31T01:15:48.785Z,11.98
2023-10-31T01:18:15.633Z,11.94
2023-10-31T01:20:42.311Z,11.90
2023-10-31T01:23:09.248Z,11.84
2023-10-31T01:25:36.027Z,11.88
2023-10-31T01:28:02.767Z,11.79
2023-10-31T01:30:29.919Z,11.78
2023-10-31T01:32:56.865Z,11.75
2023-10-31T01:35:23.697Z,11.72
2023-10-31T01:37:50.627Z,11.70
2023-10-31T01:40:17.510Z,11.70
2023-10-31T01:42:44.376Z,11.72
2023-10-31T01:45:11.467Z,11.64
2023-10-31T01:47:38.407Z,11.69
2023-10-31T01:50:08.281Z,11.68
2023-10-31T01:52:37.338Z,11.63
2023-10-31T01:55:05.892Z,11.63
2023-10-31T01:57:32.968Z,11.57
2023-10-31T02:00:00.176Z,11.51
2023-10-31T02:02:28.480Z,11.45
2023-10-31T02:04:55.286Z,11.46
2023-10-31T02:07:22.157Z,11.40
2023-10-31T02:09:49.104Z,11.32
2023-10-31T02:12:35.481Z,11.32
2023-10-31T02:15:03.463Z,11.24
2023-10-31T02:17:30.662Z,11.24
2023-10-31T02:19:57.731Z,11.18
2023-10-31T02:22:24.641Z,11.15
2023-10-31T02:24:51.527Z,11.07
2023-10-31T02:27:18.404Z,11.09
2023-10-31T02:29:45.266Z,11.05
2023-10-31T02:32:12.249Z,11.07
2023-10-31T02:34:39.334Z,11.06
2023-10-31T02:37:06.734Z,11.07
2023-10-31T02:39:34.498Z,11.01
2023-10-31T02:42:01.409Z,11.03
2023-10-31T02:44:28.344Z,10.96
2023-10-31T02:46:55.256Z,10.92
2023-10-31T02:49:22.132Z,11.00
2023-10-31T02:51:48.918Z,11.01
2023-10-31T02:54:15.723Z,11.01
2023-10-31T02:56:42.899Z,11.06
2023-10-31T02:59:09.749Z,11.08
2023-10-31T03:01:37.418Z,11.05
2023-10-31T03:04:04.659Z,11.05
2023-10-31T03:06:31.580Z,11.04
2023-10-31T03:08:58.338Z,11.04
2023-10-31T03:11:26.092Z,11.00
2023-10-31T03:13:54.727Z,11.02
2023-10-31T03:16:21.804Z,11.00
2023-10-31T03:18:48.653Z,10.96
2023-10-31T03:21:16.321Z,11.02
2023-10-31T03:23:45.350Z,10.93
2023-10-31T03:26:12.275Z,10.91
2023-10-31T03:28:39.065Z,10.90
2023-10-31T03:31:05.893Z,10.86
2023-10-31T03:33:33.348Z,10.85
2023-10-31T03:36:00.246Z,10.90
2023-10-31T03:38:27.073Z,10.87
2023-10-31T03:40:54.176Z,10.82
2023-10-31T03:43:21.162Z,10.70
2023-10-31T03:45:49.179Z,10.63
2023-10-31T03:48:17.494Z,10.63
2023-10-31T03:50:44.321Z,10.55
2023-10-31T03:53:11.486Z,10.54
2023-10-31T03:55:38.667Z,10.54
2023-10-31T03:58:05.684Z,10.61
2023-10-31T04:00:32.676Z,10.63
2023-10-31T04:02:59.555Z,10.63
2023-10-31T04:05:26.405Z,10.63
2023-10-31T04:07:53.752Z,10.60
2023-10-31T04:10:20.946Z,10.65
2023-10-31T04:12:48.021Z,10.60
2023-10-31T04:15:15.447Z,10.62
2023-10-31T04:17:42.444Z,10.63
2023-10-31T04:20:09.728Z,10.54
2023-10-31T04:22:36.564Z,10.55
2023-10-31T04:25:04.257Z,10.51
2023-10-31T04:27:31.093Z,10.52
2023-10-31T04:29:57.949Z,10.43
2023-10-31T04:32:24.735Z,10.52
2023-10-31T04:34:51.560Z,10.60
2023-10-31T04:37:18.366Z,10.55
2023-10-31T04:39:45.187Z,10.65
2023-10-31T04:42:12.106Z,10.77
2023-10-31T04:44:38.911Z,10.77
2023-10-31T04:47:06.077Z,10.85
2023-10-31T04:49:33.021Z,10.80
2023-10-31T04:51:59.775Z,10.92
2023-10-31T04:54:26.651Z,10.98
2023-10-31T04:56:53.563Z,10.98
2023-10-31T04:59:20.319Z,10.99
2023-10-31T05:01:52.450Z,10.96
2023-10-31T05:04:19.856Z,10.97
2023-10-31T05:06:46.692Z,10.97
2023-10-31T05:09:15.556Z,11.07
2023-10-31T05:11:42.997Z,11.11
2023-10-31T05:14:11.778Z,11.18
2023-10-31T05:16:44.051Z,11.20
2023-10-31T05:19:11.861Z,11.37
2023-10-31T05:21:38.644Z,11.37
2023-10-31T05:24:06.228Z,11.44
2023-10-31T05:26:33.283Z,11.41
2023-10-31T05:29:00.030Z,11.45
2023-10-31T05:31:27.932Z,11.55
2023-10-31T05:33:54.875Z,11.61
2023-10-31T05:36:25.589Z,11.78
2023-10-31T05:38:52.898Z,11.88
2023-10-31T05:41:19.642Z,11.97
2023-10-31T05:43:46.810Z,11.94
2023-10-31T05:46:16.900Z,12.09
2023-10-31T05:48:46.292Z,11.89
2023-10-31T05:51:17.585Z,11.97
2023-10-31T05:53:47.179Z,11.99
2023-10-31T05:56:15.833Z,11.97
2023-10-31T05:58:43.276Z,12.01
2023-10-31T06:01:10.326Z,12.04
2023-10-31T06:03:37.169Z,12.16
2023-10-31T06:06:04.415Z,12.22
2023-10-31T06:08:31.210Z,12.28
2023-10-31T06:10:58.292Z,12.19
2023-10-31T06:13:29.415Z,12.44
2023-10-31T06:16:00.391Z,12.26
2023-10-31T06:18:29.371Z,12.59
2023-10-31T06:20:56.362Z,12.62
2023-10-31T06:23:23.328Z,12.55
2023-10-31T06:25:50.346Z,12.54
2023-10-31T06:28:17.170Z,12.31
2023-10-31T06:30:47.047Z,12.21
2023-10-31T06:33:13.966Z,12.75
2023-10-31T06:35:40.855Z,12.60
2023-10-31T06:38:07.715Z,12.67
2023-10-31T06:40:34.498Z,12.38
2023-10-31T06:43:03.006Z,12.54
2023-10-31T06:45:29.828Z,12.83
2023-10-31T06:47:56.749Z,12.60
2023-10-31T06:50:24.076Z,13.09
2023-10-31T06:52:51.169Z,12.86
2023-10-31T06:55:18.050Z,13.16
2023-10-31T06:57:44.974Z,13.26
2023-10-31T07:00:14.752Z,13.22
2023-10-31T07:02:41.623Z,13.54
2023-10-31T07:05:08.949Z,13.70
2023-10-31T07:07:35.919Z,13.81
2023-10-31T07:10:02.760Z,14.06
2023-10-31T07:12:29.604Z,13.91
2023-10-31T07:14:56.526Z,13.85
2023-10-31T07:17:23.386Z,14.01
2023-10-31T07:19:50.456Z,13.99
2023-10-31T07:22:17.291Z,14.02
2023-10-31T07:24:44.219Z,13.79
2023-10-31T07:27:11.326Z,13.86
2023-10-31T07:29:41.795Z,14.20
2023-10-31T07:32:11.997Z,13.94
2023-10-31T07:34:42.295Z,14.16
2023-10-31T07:37:09.244Z,13.95
2023-10-31T07:39:36.003Z,14.21
2023-10-31T07:42:02.887Z,14.33
2023-10-31T07:44:29.902Z,14.81
2023-10-31T07:46:56.834Z,14.32
2023-10-31T07:49:23.604Z,14.49
2023-10-31T07:51:50.614Z,14.89
2023-10-31T07:54:17.633Z,14.62
2023-10-31T07:56:44.491Z,14.73
2023-10-31T07:59:12.467Z,14.77
2023-10-31T08:01:39.589Z,14.96
2023-10-31T08:04:07.005Z,14.63
2023-10-31T08:06:33.772Z,14.49
2023-10-31T08:09:00.819Z,14.63
2023-10-31T08:11:27.508Z,14.83
2023-10-31T08:13:54.578Z,14.81
2023-10-31T08:16:21.667Z,15.01
2023-10-31T08:18:49.388Z,14.93
2023-10-31T08:21:16.159Z,15.13
2023-10-31T08:23:45.799Z,15.13
2023-10-31T08:26:13.934Z,15.21
2023-10-31T08:28:41.277Z,15.33
2023-10-31T08:31:09.056Z,15.15
2023-10-31T08:33:36.049Z,15.41
2023-10-31T08:36:03.007Z,15.37
2023-10-31T08:38:32.242Z,15.53
2023-10-31T08:43:51.118Z,15.78
2023-10-31T08:46:17.831Z,16.02
2023-10-31T08:48:44.841Z,16.15
2023-10-31T08:51:11.618Z,16.35
2023-10-31T08:53:38.457Z,16.56
2023-10-31T08:56:05.528Z,16.64
2023-10-31T08:58:32.339Z,16.65
2023-10-31T09:00:59.084Z,16.61
2023-10-31T09:03:25.945Z,16.82
2023-10-31T09:05:52.727Z,16.51
2023-10-31T09:08:19.751Z,16.80
2023-10-31T09:10:47.780Z,17.00
2023-10-31T09:13:15.207Z,17.10
2023-10-31T09:15:42.768Z,17.23
2023-10-31T09:18:09.812Z,17.38
2023-10-31T09:20:36.825Z,17.20
2023-10-31T09:23:03.979Z,17.49
2023-10-31T09:25:31.760Z,17.63
2023-10-31T09:28:00.615Z,17.72
2023-10-31T09:30:27.908Z,17.75
2023-10-31T09:32:55.162Z,17.73
2023-10-31T09:35:25.462Z,18.06
2023-10-31T09:37:52.881Z,18.24
2023-10-31T09:40:19.895Z,18.41
2023-10-31T09:42:50.190Z,18.52
2023-10-31T09:45:17.197Z,18.37
2023-10-31T09:47:44.299Z,18.43
2023-10-31T09:50:12.248Z,18.67
2023-10-31T09:52:40.030Z,18.90
2023-10-31T09:55:08.241Z,19.01
2023-10-31T09:57:38.020Z,19.19
2023-10-31T10:00:05.275Z,19.32
2023-10-31T10:02:32.189Z,19.42
2023-10-31T10:04:59.129Z,19.42
2023-10-31T10:07:26.114Z,19.43
2023-10-31T10:09:52.855Z,19.46
2023-10-31T10:12:19.733Z,19.59
2023-10-31T10:14:47.379Z,19.56
2023-10-31T10:17:19.165Z,19.86
2023-10-31T10:19:46.013Z,19.82
2023-10-31T10:22:13.668Z,19.09
2023-10-31T10:24:40.942Z,19.19
2023-10-31T10:27:10.813Z,19.21
2023-10-31T10:29:39.637Z,19.08
2023-10-31T10:32:09.825Z,18.95
2023-10-31T10:34:36.995Z,19.08
2023-10-31T10:37:06.294Z,19.21
2023-10-31T10:39:35.565Z,19.15
2023-10-31T10:42:03.445Z,19.27
2023-10-31T10:44:35.894Z,19.33
2023-10-31T10:47:05.357Z,19.70
2023-10-31T10:49:35.498Z,19.92
2023-10-31T10:52:25.396Z,20.06
2023-10-31T10:54:56.531Z,20.12
2023-10-31T10:57:50.066Z,19.92
2023-10-31T11:00:17.941Z,20.17
2023-10-31T11:02:45.225Z,20.15
2023-10-31T11:05:12.679Z,20.19
2023-10-31T11:07:40.063Z,20.04
2023-10-31T11:10:07.520Z,20.22
2023-10-31T11:12:35.147Z,20.33
2023-10-31T11:15:03.969Z,20.01
2023-10-31T11:17:37.464Z,20.30
2023-10-31T11:20:05.448Z,20.33
2023-10-31T11:22:42.689Z,20.41
2023-10-31T11:25:16.605Z,20.00
2023-10-31T11:27:51.770Z,20.19
2023-10-31T11:30:32.047Z,20.25
2023-10-31T11:33:02.643Z,20.13
2023-10-31T11:35:34.700Z,20.06
2023-10-31T11:38:08.725Z,20.18
2023-10-31T11:40:36.961Z,20.37
2023-10-31T11:43:06.210Z,20.33
2023-10-31T11:45:46.492Z,20.44
2023-10-31T11:48:13.236Z,20.40
2023-10-31T11:50:40.889Z,20.46
2023-10-31T11:53:15.010Z,20.26
2023-10-31T11:55:47.447Z,20.43
2023-10-31T11:58:30.116Z,20.44
2023-10-31T12:01:07.311Z,20.52
2023-10-31T12:03:42.106Z,20.43
2023-10-31T12:06:10.777Z,20.63
2023-10-31T12:08:41.928Z,20.66
2023-10-31T12:11:10.386Z,20.62
2023-10-31T12:13:59.192Z,20.65
2023-10-31T12:16:31.207Z,20.64
2023-10-31T12:18:59.540Z,20.75
2023-10-31T12:21:57.551Z,20.84
2023-10-31T12:24:24.406Z,20.89
2023-10-31T12:26:52.898Z,20.92
2023-10-31T12:29:21.562Z,21.07
2023-10-31T12:31:50.210Z,20.96
2023-10-31T12:34:18.462Z,21.00
2023-10-31T12:36:48.056Z,21.00
2023-10-31T12:39:15.900Z,20.99
2023-10-31T12:41:43.134Z,20.95
2023-10-31T12:44:11.890Z,20.93
2023-10-31T12:46:42.590Z,20.91
2023-10-31T12:49:14.418Z,20.77
2023-10-31T12:52:03.230Z,20.73
2023-10-31T12:54:32.286Z,20.73
2023-10-31T12:57:03.172Z,20.64
2023-10-31T12:59:29.998Z,20.63
2023-10-31T13:01:57.068Z,20.64
2023-10-31T13:04:28.461Z,20.65
2023-10-31T13:07:03.716Z,20.54
2023-10-31T13:09:38.254Z,20.20
2023-10-31T13:12:07.271Z,20.27
2023-10-31T13:14:35.059Z,20.41
2023-10-31T13:17:03.685Z,20.41
2023-10-31T13:19:30.823Z,20.33
2023-10-31T13:21:57.859Z,20.31
2023-10-31T13:24:24.749Z,20.18
2023-10-31T13:26:54.525Z,20.19
2023-10-31T13:29:22.202Z,20.26
2023-10-31T13:31:49.257Z,20.00
2023-10-31T13:34:16.138Z,20.13
2023-10-31T13:36:43.850Z,20.06
2023-10-31T13:39:10.978Z,20.02
2023-10-31T13:41:37.763Z,19.95
2023-10-31T13:44:05.315Z,19.80
2023-10-31T13:46:32.468Z,19.59
2023-10-31T13:48:59.400Z,19.72
2023-10-31T13:51:26.179Z,19.56
2023-10-31T13:53:53.018Z,19.67
2023-10-31T13:56:20.017Z,19.46
2023-10-31T13:58:47.036Z,19.61
2023-10-31T14:01:14.359Z,19.59
2023-10-31T14:03:41.392Z,19.42
2023-10-31T14:06:08.710Z,19.42
2023-10-31T14:08:35.765Z,19.40
2023-10-31T14:11:04.334Z,19.31
2023-10-31T14:13:31.284Z,19.18
2023-10-31T14:15:58.065Z,19.10
2023-10-31T14:18:25.014Z,19.09
2023-10-31T14:20:52.187Z,19.01
2023-10-31T14:23:18.959Z,18.97
2023-10-31T14:25:45.746Z,18.89
2023-10-31T14:28:12.530Z,18.83
2023-10-31T14:30:39.325Z,18.82
2023-10-31T14:33:06.357Z,18.70
2023-10-31T14:35:34.166Z,18.58
2023-10-31T14:38:01.262Z,18.58
2023-10-31T14:40:28.161Z,18.52
2023-10-31T14:42:55.098Z,18.48
2023-10-31T14:45:22.181Z,18.38
2023-10-31T14:47:49.196Z,18.28
2023-10-31T14:50:16.089Z,18.29
2023-10-31T14:52:43.040Z,18.27
2023-10-31T14:55:10.854Z,18.19
2023-10-31T14:57:37.627Z,18.24
2023-10-31T15:00:05.007Z,18.18
2023-10-31T15:02:31.979Z,18.06
2023-10-31T15:04:58.933Z,18.12
2023-10-31T15:07:25.719Z,18.05
2023-10-31T15:09:52.652Z,18.06
2023-10-31T15:12:19.565Z,17.99
2023-10-31T15:14:46.283Z,17.99
2023-10-31T15:17:13.201Z,17.92
2023-10-31T15:19:40.375Z,17.82
2023-10-31T15:22:07.252Z,17.80
2023-10-31T15:24:35.071Z,17.84
2023-10-31T15:27:02.054Z,17.71
2023-10-31T15:29:29.016Z,17.61
2023-10-31T15:31:56.737Z,17.48
2023-10-31T15:34:23.861Z,17.46
2023-10-31T15:36:50.656Z,17.32
2023-10-31T15:39:18.252Z,17.18
2023-10-31T15:41:45.224Z,17.27
2023-10-31T15:44:12.228Z,17.19
2023-10-31T15:46:39.147Z,17.13
2023-10-31T15:49:06.885Z,17.11
2023-10-31T15:51:33.864Z,17.29
2023-10-31T15:54:01.389Z,17.20
2023-10-31T15:56:28.306Z,17.23
2023-10-31T15:58:55.147Z,17.25
2023-10-31T16:01:22.364Z,17.13
2023-10-31T16:03:49.177Z,17.10
2023-10-31T16:06:16.845Z,17.01
2023-10-31T16:08:44.148Z,17.06
2023-10-31T16:11:11.374Z,17.04
2023-10-31T16:13:39.023Z,16.99
2023-10-31T16:16:06.689Z,16.85
2023-10-31T16:18:33.528Z,16.89
2023-10-31T16:21:00.300Z,16.87
2023-10-31T16:23:27.285Z,16.92
2023-10-31T16:25:54.024Z,16.95
2023-10-31T16:28:20.854Z,16.86
2023-10-31T16:30:48.165Z,16.86
2023-10-31T16:33:17.161Z,16.85
2023-10-31T16:35:44.158Z,16.84
2023-10-31T16:38:11.023Z,16.84
2023-10-31T16:40:38.257Z,16.88
2023-10-31T16:43:05.000Z,16.87
2023-10-31T16:45:31.689Z,16.80
2023-10-31T16:47:58.677Z,16.68
2023-10-31T16:50:30.742Z,16.77
2023-10-31T16:52:58.537Z,16.70
2023-10-31T16:55:26.453Z,16.60
2023-10-31T16:57:53.283Z,16.52
2023-10-31T17:00:20.266Z,16.60
2023-10-31T17:02:47.231Z,16.56
2023-10-31T17:05:14.487Z,16.63
2023-10-31T17:07:41.593Z,16.62
2023-10-31T17:10:11.563Z,16.49
2023-10-31T17:12:38.493Z,16.45
2023-10-31T17:15:08.597Z,16.61
2023-10-31T17:17:35.636Z,16.51
2023-10-31T17:20:02.503Z,16.67
2023-10-31T17:22:33.463Z,16.73
2023-10-31T17:25:01.148Z,16.56
2023-10-31T17:27:27.977Z,16.52
2023-10-31T17:29:55.683Z,16.50
2023-10-31T17:32:23.413Z,16.55
2023-10-31T17:34:50.495Z,16.65
2023-10-31T17:37:17.667Z,16.67
2023-10-31T17:39:44.458Z,16.61
2023-10-31T17:42:11.350Z,16.73
2023-10-31T17:44:38.351Z,16.67
2023-10-31T17:47:05.538Z,16.60
2023-10-31T17:49:32.295Z,16.68
2023-10-31T17:52:03.027Z,16.75
2023-10-31T17:54:30.160Z,16.61
2023-10-31T17:56:56.951Z,16.53
2023-10-31T17:59:24.661Z,16.45
2023-10-31T18:01:54.411Z,16.61
2023-10-31T18:04:21.726Z,16.58
2023-10-31T18:06:48.698Z,16.61
2023-10-31T18:09:15.546Z,16.54
2023-10-31T18:11:43.578Z,16.53
2023-10-31T18:14:11.190Z,16.50
2023-10-31T18:16:38.131Z,16.46
2023-10-31T18:19:05.378Z,16.48
2023-10-31T18:21:32.301Z,16.36
2023-10-31T18:23:59.006Z,16.36
2023-10-31T18:26:25.844Z,16.40
2023-10-31T18:28:56.375Z,16.41
2023-10-31T18:31:23.600Z,16.36
2023-10-31T18:33:50.931Z,16.34
2023-10-31T18:36:26.952Z,16.29
2023-10-31T18:38:58.251Z,16.31
2023-10-31T18:41:25.154Z,16.33
2023-10-31T18:44:09.577Z,16.31
2023-10-31T18:46:39.664Z,16.19
2023-10-31T18:49:07.220Z,16.14
2023-10-31T18:51:34.095Z,16.17
2023-10-31T18:54:01.105Z,16.16
2023-10-31T18:56:27.923Z,16.02
2023-10-31T18:59:00.502Z,16.06
2023-10-31T19:01:29.824Z,16.00
2023-10-31T19:03:58.312Z,15.92
2023-10-31T19:06:25.581Z,15.94
2023-10-31T19:08:52.392Z,15.91
2023-10-31T19:11:19.218Z,15.90
2023-10-31T19:13:46.123Z,15.83
2023-10-31T19:16:12.968Z,15.79
2023-10-31T19:18:39.788Z,15.77
2023-10-31T19:21:06.840Z,15.65
2023-10-31T19:23:35.047Z,15.69
2023-10-31T19:26:02.195Z,15.70
2023-10-31T19:28:28.878Z,15.61
2023-10-31T19:30:56.587Z,15.60
2023-10-31T19:33:23.358Z,15.55
2023-10-31T19:35:50.182Z,15.53
2023-10-31T19:38:17.157Z,15.39
2023-10-31T19:40:44.075Z,15.34
2023-10-31T19:43:10.832Z,15.41
2023-10-31T19:45:41.840Z,15.25
2023-10-31T19:48:09.741Z,15.24
2023-10-31T19:50:37.546Z,15.06
2023-10-31T19:53:05.344Z,15.17
2023-10-31T19:55:32.288Z,15.08
2023-10-31T19:57:59.139Z,15.14
2023-10-31T20:00:28.332Z,15.09
2023-10-31T20:02:55.209Z,15.08
2023-10-31T20:05:22.333Z,14.83
2023-10-31T20:07:49.332Z,14.90
2023-10-31T20:10:16.175Z,14.99
2023-10-31T20:12:42.958Z,14.95
2023-10-31T20:15:09.924Z,14.90
2023-10-31T20:17:37.014Z,14.89
2023-10-31T20:20:05.195Z,14.82
2023-10-31T20:22:31.937Z,14.82
2023-10-31T20:24:58.726Z,14.75
2023-10-31T20:27:25.761Z,14.74
2023-10-31T20:29:52.479Z,14.72
2023-10-31T20:32:19.469Z,14.69
2023-10-31T20:34:46.622Z,14.58
2023-10-31T20:37:13.362Z,14.61
2023-10-31T20:39:43.535Z,14.56
2023-10-31T20:42:11.085Z,14.49
2023-10-31T20:44:37.958Z,14.54
2023-10-31T20:47:05.310Z,14.33
2023-10-31T20:49:32.044Z,14.45
2023-10-31T20:51:58.969Z,14.49
2023-10-31T20:54:25.715Z,14.35
2023-10-31T20:56:57.600Z,14.55
2023-10-31T20:59:24.816Z,14.48
2023-10-31T21:01:51.886Z,14.42
2023-10-31T21:04:18.810Z,14.34
2023-10-31T21:06:45.841Z,14.28
2023-10-31T21:09:14.003Z,14.25
2023-10-31T21:11:40.930Z,14.30
2023-10-31T21:14:07.711Z,14.19
2023-10-31T21:16:34.722Z,14.15
2023-10-31T21:19:01.547Z,14.16
2023-10-31T21:21:28.545Z,14.06
2023-10-31T21:23:55.410Z,13.92
2023-10-31T21:26:22.143Z,14.02
2023-10-31T21:28:49.422Z,13.79
2023-10-31T21:31:17.643Z,13.90
2023-10-31T21:33:45.589Z,13.80
2023-10-31T21:36:12.516Z,13.79
2023-10-31T21:38:39.584Z,13.75
2023-10-31T21:41:09.332Z,13.82
2023-10-31T21:43:36.387Z,13.81
2023-10-31T21:46:03.314Z,13.84
2023-10-31T21:48:30.224Z,13.74
2023-10-31T21:50:58.821Z,13.66
2023-10-31T21:53:26.927Z,13.70
2023-10-31T21:55:53.831Z,13.62
2023-10-31T21:58:20.549Z,13.61
2023-10-31T22:00:47.241Z,13.62
2023-10-31T22:03:14.250Z,13.58
2023-10-31T22:05:41.224Z,13.56
2023-10-31T22:08:09.282Z,13.53
2023-10-31T22:10:35.977Z,13.55
2023-10-31T22:13:03.999Z,13.56
2023-10-31T22:15:31.162Z,13.57
2023-10-31T22:17:58.015Z,13.51
2023-10-31T22:20:24.876Z,13.45
2023-10-31T22:22:51.746Z,13.45
2023-10-31T22:25:18.532Z,13.41
2023-10-31T22:27:45.426Z,13.44
2023-10-31T22:30:12.816Z,13.47
2023-10-31T22:32:39.953Z,13.46
2023-10-31T22:35:07.198Z,13.46
2023-10-31T22:37:38.596Z,13.42
2023-10-31T22:40:05.958Z,13.36
2023-10-31T22:42:34.244Z,13.46
2023-10-31T22:45:00.986Z,13.44
2023-10-31T22:47:27.970Z,13.39
2023-10-31T22:49:54.941Z,13.42
2023-10-31T22:52:21.784Z,13.30
2023-10-31T22:54:48.520Z,13.29
2023-10-31T22:57:15.456Z,13.21
2023-10-31T22:59:42.243Z,13.27
2023-10-31T23:02:10.395Z,13.29
2023-10-31T23:04:37.427Z,13.27
2023-10-31T23:07:07.301Z,13.29
2023-10-31T23:09:34.567Z,13.33
2023-10-31T23:12:03.051Z,13.17
2023-10-31T23:14:29.965Z,13.28
2023-10-31T23:16:56.928Z,13.29
2023-10-31T23:19:23.816Z,13.20
2023-10-31T23:21:52.201Z,13.27
2023-10-31T23:24:19.198Z,13.22
2023-10-31T23:26:56.093Z,13.26
2023-10-31T23:29:23.684Z,13.21
2023-10-31T23:31:50.626Z,13.20
2023-10-31T23:34:17.337Z,13.19
2023-10-31T23:36:44.197Z,13.21
2023-10-31T23:39:11.025Z,13.16
2023-10-31T23:41:38.427Z,13.10
2023-10-31T23:44:05.657Z,13.16
2023-10-31T23:46:32.682Z,13.14
2023-10-31T23:48:59.436Z,13.07
2023-10-31T23:51:26.549Z,13.22
2023-10-31T23:53:53.317Z,13.12
2023-10-31T23:56:20.131Z,13.19
2023-10-31T23:58:47.230Z,13.15
